sensor_id;sensor_type;location;lat;lon;timestamp;pressure;altitude;pressure_sealevel;temperature;humidity
21433;BME280;18592;49.708;10.900;2023-03-03T00:00:53;98873.56;;;6.11;40.10
21433;BME280;18592;49.708;10.900;2023-03-03T00:02:59;98867.13;;;6.05;40.43
21433;BME280;18592;49.708;10.900;2023-03-03T00:05:06;98864.63;;;6.04;39.93
21433;BME280;18592;49.708;10.900;2023-03-03T00:07:09;98866.09;;;6.00;40.07
21433;BME280;18592;49.708;10.900;2023-03-03T00:09:11;98870.91;;;5.98;40.25
21433;BME280;18592;49.708;10.900;2023-03-03T00:11:13;98874.84;;;5.95;40.36
21433;BME280;18592;49.708;10.900;2023-03-03T00:13:17;98872.38;;;5.94;39.81
21433;BME280;18592;49.708;10.900;2023-03-03T00:15:21;98878.44;;;5.89;40.45
21433;BME280;18592;49.708;10.900;2023-03-03T00:17:28;98882.59;;;5.85;39.94
21433;BME280;18592;49.708;10.900;2023-03-03T00:19:37;98877.19;;;5.85;39.90
21433;BME280;18592;49.708;10.900;2023-03-03T00:21:42;98877.78;;;5.81;39.99
21433;BME280;18592;49.708;10.900;2023-03-03T00:23:45;98875.50;;;5.77;40.34
21433;BME280;18592;49.708;10.900;2023-03-03T00:25:52;98877.00;;;5.73;40.03
21433;BME280;18592;49.708;10.900;2023-03-03T00:27:54;98870.97;;;5.71;40.03
21433;BME280;18592;49.708;10.900;2023-03-03T00:29:57;98871.38;;;5.68;40.18
21433;BME280;18592;49.708;10.900;2023-03-03T00:36:37;98885.53;;;5.57;40.59
21433;BME280;18592;49.708;10.900;2023-03-03T00:38:39;98880.56;;;5.54;40.18
21433;BME280;18592;49.708;10.900;2023-03-03T00:40:41;98887.22;;;5.52;40.32
21433;BME280;18592;49.708;10.900;2023-03-03T00:42:49;98884.13;;;5.48;40.84
21433;BME280;18592;49.708;10.900;2023-03-03T00:44:58;98881.22;;;5.43;40.81
21433;BME280;18592;49.708;10.900;2023-03-03T00:47:12;98881.41;;;5.42;40.25
21433;BME280;18592;49.708;10.900;2023-03-03T00:49:25;98882.47;;;5.41;40.90
21433;BME280;18592;49.708;10.900;2023-03-03T00:51:31;98891.81;;;5.38;40.83
21433;BME280;18592;49.708;10.900;2023-03-03T00:53:34;98888.06;;;5.39;40.56
21433;BME280;18592;49.708;10.900;2023-03-03T00:55:36;98897.41;;;5.37;40.66
21433;BME280;18592;49.708;10.900;2023-03-03T00:57:38;98895.97;;;5.34;40.89
21433;BME280;18592;49.708;10.900;2023-03-03T00:59:43;98900.97;;;5.31;41.12
21433;BME280;18592;49.708;10.900;2023-03-03T01:01:44;98893.06;;;5.29;40.50
21433;BME280;18592;49.708;10.900;2023-03-03T01:03:46;98895.16;;;5.27;40.54
21433;BME280;18592;49.708;10.900;2023-03-03T01:05:49;98892.84;;;5.24;40.82
21433;BME280;18592;49.708;10.900;2023-03-03T01:07:51;98897.66;;;5.22;40.89
21433;BME280;18592;49.708;10.900;2023-03-03T01:09:52;98894.31;;;5.20;40.86
21433;BME280;18592;49.708;10.900;2023-03-03T01:11:54;98885.00;;;5.16;40.74
21433;BME280;18592;49.708;10.900;2023-03-03T01:13:56;98889.75;;;5.14;41.15
21433;BME280;18592;49.708;10.900;2023-03-03T01:16:01;98889.75;;;5.14;40.61
21433;BME280;18592;49.708;10.900;2023-03-03T01:18:03;98888.28;;;5.11;41.03
21433;BME280;18592;49.708;10.900;2023-03-03T01:20:12;98888.50;;;5.10;40.84
21433;BME280;18592;49.708;10.900;2023-03-03T01:22:14;98892.25;;;5.09;41.03
21433;BME280;18592;49.708;10.900;2023-03-03T01:24:16;98883.94;;;5.04;40.86
21433;BME280;18592;49.708;10.900;2023-03-03T01:26:18;98886.00;;;5.02;40.93
21433;BME280;18592;49.708;10.900;2023-03-03T01:28:19;98886.41;;;4.99;41.19
21433;BME280;18592;49.708;10.900;2023-03-03T01:30:21;98885.41;;;5.00;40.87
21433;BME280;18592;49.708;10.900;2023-03-03T01:32:24;98883.94;;;4.97;40.95
21433;BME280;18592;49.708;10.900;2023-03-03T01:34:26;98884.78;;;4.98;40.98
21433;BME280;18592;49.708;10.900;2023-03-03T01:36:28;98878.72;;;4.96;40.92
21433;BME280;18592;49.708;10.900;2023-03-03T01:38:30;98884.97;;;4.96;41.05
21433;BME280;18592;49.708;10.900;2023-03-03T01:40:32;98879.16;;;4.93;41.45
21433;BME280;18592;49.708;10.900;2023-03-03T01:42:35;98881.22;;;4.91;41.53
21433;BME280;18592;49.708;10.900;2023-03-03T01:44:37;98877.06;;;4.88;41.48
21433;BME280;18592;49.708;10.900;2023-03-03T01:46:44;98873.13;;;4.84;41.07
21433;BME280;18592;49.708;10.900;2023-03-03T01:48:47;98879.34;;;4.85;41.35
21433;BME280;18592;49.708;10.900;2023-03-03T01:51:14;98878.09;;;4.81;41.67
21433;BME280;18592;49.708;10.900;2023-03-03T01:53:38;98875.84;;;4.78;40.94
21433;BME280;18592;49.708;10.900;2023-03-03T01:55:42;98881.41;;;4.76;41.90
21433;BME280;18592;49.708;10.900;2023-03-03T01:57:50;98863.56;;;4.75;41.20
21433;BME280;18592;49.708;10.900;2023-03-03T01:59:54;98866.47;;;4.74;41.48
21433;BME280;18592;49.708;10.900;2023-03-03T02:01:57;98868.53;;;4.72;41.03
21433;BME280;18592;49.708;10.900;2023-03-03T02:04:01;98863.13;;;4.72;41.25
21433;BME280;18592;49.708;10.900;2023-03-03T02:06:05;98863.56;;;4.69;41.33
21433;BME280;18592;49.708;10.900;2023-03-03T02:08:10;98865.84;;;4.65;41.61
21433;BME280;18592;49.708;10.900;2023-03-03T02:10:16;98866.03;;;4.64;41.08
21433;BME280;18592;49.708;10.900;2023-03-03T02:12:19;98874.34;;;4.62;41.57
21433;BME280;18592;49.708;10.900;2023-03-03T02:14:23;98859.59;;;4.58;41.65
21433;BME280;18592;49.708;10.900;2023-03-03T02:16:25;98857.94;;;4.57;41.78
21433;BME280;18592;49.708;10.900;2023-03-03T02:18:27;98866.03;;;4.57;41.56
21433;BME280;18592;49.708;10.900;2023-03-03T02:22:42;98870.38;;;4.52;41.76
21433;BME280;18592;49.708;10.900;2023-03-03T02:24:54;98875.56;;;4.46;41.14
21433;BME280;18592;49.708;10.900;2023-03-03T02:26:57;98870.38;;;4.45;41.14
21433;BME280;18592;49.708;10.900;2023-03-03T02:29:02;98878.66;;;4.43;41.60
21433;BME280;18592;49.708;10.900;2023-03-03T02:31:08;98880.53;;;4.43;41.07
21433;BME280;18592;49.708;10.900;2023-03-03T02:33:14;98871.81;;;4.41;42.10
21433;BME280;18592;49.708;10.900;2023-03-03T02:35:28;98873.88;;;4.39;41.61
21433;BME280;18592;49.708;10.900;2023-03-03T02:37:30;98872.22;;;4.38;41.38
21433;BME280;18592;49.708;10.900;2023-03-03T02:39:31;98873.44;;;4.35;41.30
21433;BME280;18592;49.708;10.900;2023-03-03T02:43:54;98877.59;;;4.31;41.42
21433;BME280;18592;49.708;10.900;2023-03-03T02:45:59;98880.50;;;4.30;41.34
21433;BME280;18592;49.708;10.900;2023-03-03T02:48:01;98876.34;;;4.27;41.81
21433;BME280;18592;49.708;10.900;2023-03-03T02:50:03;98877.38;;;4.26;41.25
21433;BME280;18592;49.708;10.900;2023-03-03T02:52:07;98883.16;;;4.23;41.56
21433;BME280;18592;49.708;10.900;2023-03-03T02:54:13;98882.56;;;4.21;41.78
21433;BME280;18592;49.708;10.900;2023-03-03T02:56:15;98876.31;;;4.21;41.76
21433;BME280;18592;49.708;10.900;2023-03-03T02:58:17;98878.78;;;4.16;41.79
21433;BME280;18592;49.708;10.900;2023-03-03T03:00:20;98881.69;;;4.14;42.29
21433;BME280;18592;49.708;10.900;2023-03-03T03:02:23;98875.69;;;4.12;42.16
21433;BME280;18592;49.708;10.900;2023-03-03T03:04:26;98874.00;;;4.11;41.74
21433;BME280;18592;49.708;10.900;2023-03-03T03:06:28;98872.34;;;4.10;41.17
21433;BME280;18592;49.708;10.900;2023-03-03T03:08:30;98875.47;;;4.07;41.55
21433;BME280;18592;49.708;10.900;2023-03-03T03:10:32;98881.25;;;4.04;41.97
21433;BME280;18592;49.708;10.900;2023-03-03T03:12:34;98884.13;;;4.03;41.98
21433;BME280;18592;49.708;10.900;2023-03-03T03:14:35;98883.31;;;4.02;41.94
21433;BME280;18592;49.708;10.900;2023-03-03T03:16:39;98887.25;;;4.00;42.18
21433;BME280;18592;49.708;10.900;2023-03-03T03:18:41;98877.69;;;3.97;41.84
21433;BME280;18592;49.708;10.900;2023-03-03T03:20:43;98884.13;;;3.96;41.75
21433;BME280;18592;49.708;10.900;2023-03-03T03:22:47;98887.03;;;3.95;41.67
21433;BME280;18592;49.708;10.900;2023-03-03T03:24:48;98897.75;;;3.88;41.98
21433;BME280;18592;49.708;10.900;2023-03-03T03:26:50;98898.38;;;3.90;42.16
21433;BME280;18592;49.708;10.900;2023-03-03T03:28:53;98894.03;;;3.89;41.71
21433;BME280;18592;49.708;10.900;2023-03-03T03:30:55;98906.06;;;3.87;41.74
21433;BME280;18592;49.708;10.900;2023-03-03T03:32:57;98907.28;;;3.84;42.13
21433;BME280;18592;49.708;10.900;2023-03-03T03:34:58;98903.53;;;3.78;42.12
21433;BME280;18592;49.708;10.900;2023-03-03T03:37:00;98906.41;;;3.77;42.48
21433;BME280;18592;49.708;10.900;2023-03-03T03:39:02;98902.91;;;3.76;42.22
21433;BME280;18592;49.708;10.900;2023-03-03T03:41:11;98895.19;;;3.73;42.40
21433;BME280;18592;49.708;10.900;2023-03-03T03:43:13;98896.22;;;3.72;41.62
21433;BME280;18592;49.708;10.900;2023-03-03T03:45:15;98890.00;;;3.72;42.45
21433;BME280;18592;49.708;10.900;2023-03-03T03:47:19;98896.63;;;3.69;42.12
21433;BME280;18592;49.708;10.900;2023-03-03T03:49:21;98883.56;;;3.66;42.58
21433;BME280;18592;49.708;10.900;2023-03-03T03:51:26;98876.50;;;3.65;42.04
21433;BME280;18592;49.708;10.900;2023-03-03T03:53:27;98877.50;;;3.64;42.31
21433;BME280;18592;49.708;10.900;2023-03-03T03:55:29;98884.78;;;3.64;42.10
21433;BME280;18592;49.708;10.900;2023-03-03T03:57:31;98886.19;;;3.60;42.11
21433;BME280;18592;49.708;10.900;2023-03-03T03:59:33;98880.19;;;3.58;41.98
21433;BME280;18592;49.708;10.900;2023-03-03T04:01:35;98881.41;;;3.55;42.78
21433;BME280;18592;49.708;10.900;2023-03-03T04:03:37;98886.81;;;3.55;42.19
21433;BME280;18592;49.708;10.900;2023-03-03T04:05:43;98888.66;;;3.55;42.30
21433;BME280;18592;49.708;10.900;2023-03-03T04:07:45;98892.78;;;3.51;42.34
21433;BME280;18592;49.708;10.900;2023-03-03T04:09:48;98906.25;;;3.51;42.44
21433;BME280;18592;49.708;10.900;2023-03-03T04:11:50;98909.97;;;3.50;41.94
21433;BME280;18592;49.708;10.900;2023-03-03T04:13:52;98904.97;;;3.47;42.20
21433;BME280;18592;49.708;10.900;2023-03-03T04:15:55;98907.88;;;3.45;42.19
21433;BME280;18592;49.708;10.900;2023-03-03T04:17:56;98906.19;;;3.44;42.58
21433;BME280;18592;49.708;10.900;2023-03-03T04:19:59;98913.66;;;3.42;42.49
21433;BME280;18592;49.708;10.900;2023-03-03T04:22:01;98907.63;;;3.40;42.11
21433;BME280;18592;49.708;10.900;2023-03-03T04:24:04;98897.69;;;3.41;42.40
21433;BME280;18592;49.708;10.900;2023-03-03T04:26:07;98900.41;;;3.41;42.43
21433;BME280;18592;49.708;10.900;2023-03-03T04:28:09;98900.78;;;3.38;42.56
21433;BME280;18592;49.708;10.900;2023-03-03T04:30:13;98897.47;;;3.36;42.70
21433;BME280;18592;49.708;10.900;2023-03-03T04:32:17;98897.63;;;3.34;42.96
21433;BME280;18592;49.708;10.900;2023-03-03T04:34:21;98900.53;;;3.33;42.63
21433;BME280;18592;49.708;10.900;2023-03-03T04:36:22;98903.63;;;3.30;42.39
21433;BME280;18592;49.708;10.900;2023-03-03T04:38:24;98901.13;;;3.28;42.28
21433;BME280;18592;49.708;10.900;2023-03-03T04:40:28;98905.88;;;3.26;42.51
21433;BME280;18592;49.708;10.900;2023-03-03T04:42:30;98909.59;;;3.25;42.31
21433;BME280;18592;49.708;10.900;2023-03-03T04:44:32;98903.38;;;3.25;42.63
21433;BME280;18592;49.708;10.900;2023-03-03T04:46:34;98896.53;;;3.22;42.69
21433;BME280;18592;49.708;10.900;2023-03-03T04:48:37;98910.19;;;3.20;42.82
21433;BME280;18592;49.708;10.900;2023-03-03T04:50:41;98913.91;;;3.19;42.56
21433;BME280;18592;49.708;10.900;2023-03-03T04:52:42;98920.34;;;3.18;42.37
21433;BME280;18592;49.708;10.900;2023-03-03T04:54:46;98912.63;;;3.15;42.39
21433;BME280;18592;49.708;10.900;2023-03-03T04:56:48;98914.28;;;3.16;42.59
21433;BME280;18592;49.708;10.900;2023-03-03T04:58:50;98923.41;;;3.15;42.81
21433;BME280;18592;49.708;10.900;2023-03-03T05:00:54;98924.63;;;3.13;43.04
21433;BME280;18592;49.708;10.900;2023-03-03T05:02:57;98924.63;;;3.13;42.63
21433;BME280;18592;49.708;10.900;2023-03-03T05:04:59;98924.19;;;3.09;42.88
21433;BME280;18592;49.708;10.900;2023-03-03T05:07:01;98924.56;;;3.06;43.17
21433;BME280;18592;49.708;10.900;2023-03-03T05:09:03;98928.31;;;3.05;42.98
21433;BME280;18592;49.708;10.900;2023-03-03T05:11:05;98918.53;;;3.04;42.47
21433;BME280;18592;49.708;10.900;2023-03-03T05:13:07;98919.59;;;3.03;42.82
21433;BME280;18592;49.708;10.900;2023-03-03T05:15:09;98919.59;;;3.03;43.06
21433;BME280;18592;49.708;10.900;2023-03-03T05:17:11;98923.28;;;3.02;43.23
21433;BME280;18592;49.708;10.900;2023-03-03T05:19:13;98918.75;;;3.03;42.43
21433;BME280;18592;49.708;10.900;2023-03-03T05:21:14;98925.34;;;3.00;42.94
21433;BME280;18592;49.708;10.900;2023-03-03T05:23:17;98929.69;;;3.01;43.03
21433;BME280;18592;49.708;10.900;2023-03-03T05:25:20;98933.59;;;2.99;42.90
21433;BME280;18592;49.708;10.900;2023-03-03T05:27:22;98939.19;;;2.97;42.68
21433;BME280;18592;49.708;10.900;2023-03-03T05:29:24;98939.19;;;2.97;42.87
21433;BME280;18592;49.708;10.900;2023-03-03T05:31:26;98934.81;;;2.96;42.60
21433;BME280;18592;49.708;10.900;2023-03-03T05:33:28;98936.88;;;2.94;43.20
21433;BME280;18592;49.708;10.900;2023-03-03T05:35:29;98939.78;;;2.93;43.01
21433;BME280;18592;49.708;10.900;2023-03-03T05:37:31;98947.03;;;2.92;43.15
21433;BME280;18592;49.708;10.900;2023-03-03T05:39:34;98953.25;;;2.93;42.85
21433;BME280;18592;49.708;10.900;2023-03-03T05:41:35;98946.56;;;2.89;43.29
21433;BME280;18592;49.708;10.900;2023-03-03T05:43:37;98952.16;;;2.87;42.88
21433;BME280;18592;49.708;10.900;2023-03-03T05:45:39;98952.16;;;2.87;42.69
21433;BME280;18592;49.708;10.900;2023-03-03T05:47:41;98948.44;;;2.88;42.86
21433;BME280;18592;49.708;10.900;2023-03-03T05:49:42;98944.06;;;2.87;42.85
21433;BME280;18592;49.708;10.900;2023-03-03T05:51:44;98928.94;;;2.86;42.87
21433;BME280;18592;49.708;10.900;2023-03-03T05:53:46;98935.38;;;2.85;43.32
21433;BME280;18592;49.708;10.900;2023-03-03T05:55:48;98944.44;;;2.84;43.18
21433;BME280;18592;49.708;10.900;2023-03-03T05:57:50;98950.69;;;2.85;43.09
21433;BME280;18592;49.708;10.900;2023-03-03T05:59:52;98954.22;;;2.85;42.97
21433;BME280;18592;49.708;10.900;2023-03-03T06:01:53;98949.19;;;2.82;42.89
21433;BME280;18592;49.708;10.900;2023-03-03T06:03:55;98950.03;;;2.83;42.83
21433;BME280;18592;49.708;10.900;2023-03-03T06:05:57;98949.19;;;2.82;42.70
21433;BME280;18592;49.708;10.900;2023-03-03T06:07:58;98951.06;;;2.82;42.79
21433;BME280;18592;49.708;10.900;2023-03-03T06:10:00;98950.63;;;2.78;43.31
21433;BME280;18592;49.708;10.900;2023-03-03T06:12:05;98962.03;;;2.80;42.89
21433;BME280;18592;49.708;10.900;2023-03-03T06:14:10;98966.78;;;2.78;42.93
21433;BME280;18592;49.708;10.900;2023-03-03T06:16:11;98964.88;;;2.79;42.87
21433;BME280;18592;49.708;10.900;2023-03-03T06:18:13;98965.09;;;2.77;43.16
21433;BME280;18592;49.708;10.900;2023-03-03T06:20:15;98966.09;;;2.76;43.03
21433;BME280;18592;49.708;10.900;2023-03-03T06:22:17;98969.84;;;2.75;43.32
21433;BME280;18592;49.708;10.900;2023-03-03T06:24:19;98972.53;;;2.75;43.11
21433;BME280;18592;49.708;10.900;2023-03-03T06:26:21;98973.75;;;2.73;43.47
21433;BME280;18592;49.708;10.900;2023-03-03T06:28:23;98979.13;;;2.73;42.89
21433;BME280;18592;49.708;10.900;2023-03-03T06:30:25;98978.28;;;2.72;43.26
21433;BME280;18592;49.708;10.900;2023-03-03T06:32:28;98991.53;;;2.74;43.11
21433;BME280;18592;49.708;10.900;2023-03-03T06:34:30;98989.69;;;2.74;43.05
21433;BME280;18592;49.708;10.900;2023-03-03T06:36:32;98989.31;;;2.77;43.31
21433;BME280;18592;49.708;10.900;2023-03-03T06:38:33;98991.81;;;2.79;42.94
21433;BME280;18592;49.708;10.900;2023-03-03T06:40:35;98994.31;;;2.80;43.39
21433;BME280;18592;49.708;10.900;2023-03-03T06:42:37;98998.50;;;2.83;43.35
21433;BME280;18592;49.708;10.900;2023-03-03T06:44:38;98997.84;;;2.81;43.27
21433;BME280;18592;49.708;10.900;2023-03-03T06:46:40;99003.88;;;2.83;43.36
21433;BME280;18592;49.708;10.900;2023-03-03T06:48:42;99008.03;;;2.85;43.66
21433;BME280;18592;49.708;10.900;2023-03-03T06:50:43;99009.69;;;2.86;43.39
21433;BME280;18592;49.708;10.900;2023-03-03T06:52:45;99011.38;;;2.87;43.73
21433;BME280;18592;49.708;10.900;2023-03-03T06:54:46;99012.66;;;2.91;43.20
21433;BME280;18592;49.708;10.900;2023-03-03T06:56:51;99009.94;;;2.91;44.26
21433;BME280;18592;49.708;10.900;2023-03-03T06:58:55;99012.25;;;2.94;43.90
21433;BME280;18592;49.708;10.900;2023-03-03T07:00:59;99016.44;;;2.97;43.80
21433;BME280;18592;49.708;10.900;2023-03-03T07:03:07;99014.59;;;2.97;44.12
21433;BME280;18592;49.708;10.900;2023-03-03T07:05:16;99016.31;;;3.05;44.04
21433;BME280;18592;49.708;10.900;2023-03-03T07:07:24;99023.19;;;3.07;43.82
21433;BME280;18592;49.708;10.900;2023-03-03T07:09:28;99020.75;;;3.12;43.77
21433;BME280;18592;49.708;10.900;2023-03-03T07:11:30;99024.53;;;3.18;43.12
21433;BME280;18592;49.708;10.900;2023-03-03T07:13:32;99035.34;;;3.25;43.35
21433;BME280;18592;49.708;10.900;2023-03-03T07:15:34;99034.00;;;3.35;43.45
21433;BME280;18592;49.708;10.900;2023-03-03T07:17:41;99026.44;;;3.45;44.14
21433;BME280;18592;49.708;10.900;2023-03-03T07:19:44;99038.97;;;3.59;43.61
21433;BME280;18592;49.708;10.900;2023-03-03T07:21:46;99041.59;;;3.74;43.61
21433;BME280;18592;49.708;10.900;2023-03-03T07:23:50;99046.69;;;3.90;43.93
21433;BME280;18592;49.708;10.900;2023-03-03T07:25:52;99055.31;;;4.07;43.97
21433;BME280;18592;49.708;10.900;2023-03-03T07:27:59;99044.88;;;4.25;43.95
21433;BME280;18592;49.708;10.900;2023-03-03T07:30:23;99047.44;;;4.46;44.11
21433;BME280;18592;49.708;10.900;2023-03-03T07:32:27;99043.81;;;4.67;43.74
21433;BME280;18592;49.708;10.900;2023-03-03T07:34:37;99034.75;;;4.87;43.96
21433;BME280;18592;49.708;10.900;2023-03-03T07:36:40;99044.78;;;5.06;43.67
21433;BME280;18592;49.708;10.900;2023-03-03T07:38:51;99047.53;;;5.26;44.09
21433;BME280;18592;49.708;10.900;2023-03-03T07:40:55;99050.06;;;5.47;44.13
21433;BME280;18592;49.708;10.900;2023-03-03T07:42:57;99053.59;;;5.67;44.11
21433;BME280;18592;49.708;10.900;2023-03-03T07:45:31;99053.63;;;5.94;44.41
21433;BME280;18592;49.708;10.900;2023-03-03T07:47:35;99064.88;;;6.17;44.21
21433;BME280;18592;49.708;10.900;2023-03-03T07:49:37;99070.00;;;6.38;44.23
21433;BME280;18592;49.708;10.900;2023-03-03T07:51:39;99076.84;;;6.60;44.12
21433;BME280;18592;49.708;10.900;2023-03-03T07:53:42;99077.63;;;6.80;44.68
21433;BME280;18592;49.708;10.900;2023-03-03T07:55:44;99075.44;;;7.02;44.21
21433;BME280;18592;49.708;10.900;2023-03-03T07:57:50;99075.31;;;7.22;44.29
21433;BME280;18592;49.708;10.900;2023-03-03T08:01:58;99067.81;;;7.55;44.10
21433;BME280;18592;49.708;10.900;2023-03-03T08:04:00;99072.31;;;7.67;44.04
21433;BME280;18592;49.708;10.900;2023-03-03T08:06:30;99070.34;;;7.81;43.83
21433;BME280;18592;49.708;10.900;2023-03-03T08:08:36;99078.59;;;7.93;43.55
21433;BME280;18592;49.708;10.900;2023-03-03T08:10:46;99074.56;;;8.02;43.67
21433;BME280;18592;49.708;10.900;2023-03-03T08:12:48;99070.50;;;8.11;43.46
21433;BME280;18592;49.708;10.900;2023-03-03T08:14:51;99066.91;;;8.17;43.30
21433;BME280;18592;49.708;10.900;2023-03-03T08:16:55;99071.44;;;8.23;43.38
21433;BME280;18592;49.708;10.900;2023-03-03T08:19:01;99062.44;;;8.29;43.38
21433;BME280;18592;49.708;10.900;2023-03-03T08:21:14;99068.25;;;8.32;43.27
21433;BME280;18592;49.708;10.900;2023-03-03T08:23:17;99074.31;;;8.35;43.10
21433;BME280;18592;49.708;10.900;2023-03-03T08:25:19;99058.59;;;8.37;42.80
21433;BME280;18592;49.708;10.900;2023-03-03T08:27:21;99061.09;;;8.38;43.19
21433;BME280;18592;49.708;10.900;2023-03-03T08:29:23;99055.44;;;8.40;43.06
21433;BME280;18592;49.708;10.900;2023-03-03T08:31:25;99054.97;;;8.43;42.83
21433;BME280;18592;49.708;10.900;2023-03-03T08:33:41;99064.78;;;8.44;43.13
21433;BME280;18592;49.708;10.900;2023-03-03T08:35:43;99055.38;;;8.46;42.92
21433;BME280;18592;49.708;10.900;2023-03-03T08:37:45;99051.38;;;8.49;42.80
21433;BME280;18592;49.708;10.900;2023-03-03T08:39:47;99055.50;;;8.51;43.02
21433;BME280;18592;49.708;10.900;2023-03-03T08:41:49;99062.97;;;8.56;42.80
21433;BME280;18592;49.708;10.900;2023-03-03T08:43:50;99057.69;;;8.61;42.81
21433;BME280;18592;49.708;10.900;2023-03-03T08:45:53;99063.53;;;8.64;43.21
21433;BME280;18592;49.708;10.900;2023-03-03T08:47:59;99068.28;;;8.69;42.76
21433;BME280;18592;49.708;10.900;2023-03-03T08:50:01;99059.22;;;8.75;42.80
21433;BME280;18592;49.708;10.900;2023-03-03T08:52:03;99057.25;;;8.82;43.09
21433;BME280;18592;49.708;10.900;2023-03-03T08:54:06;99057.41;;;8.87;43.21
21433;BME280;18592;49.708;10.900;2023-03-03T08:56:07;99057.56;;;8.92;43.27
21433;BME280;18592;49.708;10.900;2023-03-03T08:58:10;99060.63;;;8.95;43.16
21433;BME280;18592;49.708;10.900;2023-03-03T09:00:15;99060.31;;;9.04;43.46
21433;BME280;18592;49.708;10.900;2023-03-03T09:02:16;99054.81;;;9.10;43.23
21433;BME280;18592;49.708;10.900;2023-03-03T09:04:18;99062.66;;;9.18;43.07
21433;BME280;18592;49.708;10.900;2023-03-03T09:06:20;99057.50;;;9.28;43.27
21433;BME280;18592;49.708;10.900;2023-03-03T09:08:21;99048.53;;;9.39;43.24
21433;BME280;18592;49.708;10.900;2023-03-03T09:10:25;99048.34;;;9.52;43.26
21433;BME280;18592;49.708;10.900;2023-03-03T09:12:34;99056.44;;;9.71;43.20
21433;BME280;18592;49.708;10.900;2023-03-03T09:14:36;99061.09;;;9.93;43.17
21433;BME280;18592;49.708;10.900;2023-03-03T09:16:59;99049.78;;;10.19;43.44
21433;BME280;18592;49.708;10.900;2023-03-03T09:19:24;99061.16;;;10.51;44.34
21433;BME280;18592;49.708;10.900;2023-03-03T09:21:29;99048.78;;;10.83;44.17
21433;BME280;18592;49.708;10.900;2023-03-03T09:23:35;99050.50;;;11.13;44.07
21433;BME280;18592;49.708;10.900;2023-03-03T09:25:37;99056.53;;;11.43;44.35
21433;BME280;18592;49.708;10.900;2023-03-03T09:27:42;99053.31;;;11.74;44.86
21433;BME280;18592;49.708;10.900;2023-03-03T09:29:43;99053.00;;;12.04;45.13
21433;BME280;18592;49.708;10.900;2023-03-03T09:31:53;99048.59;;;12.36;45.84
21433;BME280;18592;49.708;10.900;2023-03-03T09:33:56;99053.41;;;12.67;45.42
21433;BME280;18592;49.708;10.900;2023-03-03T09:36:10;99049.44;;;12.97;45.49
21433;BME280;18592;49.708;10.900;2023-03-03T09:38:31;99054.50;;;13.26;45.57
21433;BME280;18592;49.708;10.900;2023-03-03T09:40:54;99051.56;;;13.60;45.76
21433;BME280;18592;49.708;10.900;2023-03-03T09:43:44;99054.06;;;13.88;44.86
21433;BME280;18592;49.708;10.900;2023-03-03T09:46:01;99045.25;;;14.18;45.20
21433;BME280;18592;49.708;10.900;2023-03-03T09:53:23;99049.06;;;14.95;43.78
21433;BME280;18592;49.708;10.900;2023-03-03T09:55:53;99049.44;;;15.19;43.65
21433;BME280;18592;49.708;10.900;2023-03-03T09:58:05;99051.97;;;15.41;43.47
21433;BME280;18592;49.708;10.900;2023-03-03T10:00:41;99054.56;;;15.62;43.02
21433;BME280;18592;49.708;10.900;2023-03-03T10:03:02;99058.44;;;15.81;42.74
21433;BME280;18592;49.708;10.900;2023-03-03T10:05:27;99059.56;;;16.01;42.80
21433;BME280;18592;49.708;10.900;2023-03-03T10:07:51;99058.22;;;16.18;42.40
21433;BME280;18592;49.708;10.900;2023-03-03T10:12:30;99045.81;;;16.51;41.56
21433;BME280;18592;49.708;10.900;2023-03-03T10:16:48;99053.50;;;16.79;41.31
21433;BME280;18592;49.708;10.900;2023-03-03T10:25:42;99052.78;;;17.28;40.30
21433;BME280;18592;49.708;10.900;2023-03-03T10:33:16;99063.09;;;17.61;39.61
21433;BME280;18592;49.708;10.900;2023-03-03T10:35:38;99067.75;;;17.70;39.74
21433;BME280;18592;49.708;10.900;2023-03-03T10:40:25;99064.03;;;17.90;39.00
21433;BME280;18592;49.708;10.900;2023-03-03T10:42:54;99067.81;;;17.99;39.00
21433;BME280;18592;49.708;10.900;2023-03-03T10:47:47;99059.97;;;18.16;38.39
21433;BME280;18592;49.708;10.900;2023-03-03T10:52:38;99049.63;;;18.32;38.47
21433;BME280;18592;49.708;10.900;2023-03-03T10:57:10;99061.66;;;18.46;38.03
21433;BME280;18592;49.708;10.900;2023-03-03T11:01:58;99053.25;;;18.61;37.88
21433;BME280;18592;49.708;10.900;2023-03-03T11:04:12;99048.22;;;18.68;38.19
21433;BME280;18592;49.708;10.900;2023-03-03T11:08:54;99050.28;;;18.81;37.36
21433;BME280;18592;49.708;10.900;2023-03-03T11:11:16;99046.91;;;18.89;37.25
21433;BME280;18592;49.708;10.900;2023-03-03T11:21:08;99037.47;;;19.14;36.09
21433;BME280;18592;49.708;10.900;2023-03-03T11:22:55;99031.06;;;19.19;35.67
21433;BME280;18592;49.708;10.900;2023-03-03T11:27:13;99027.66;;;19.27;36.24
21433;BME280;18592;49.708;10.900;2023-03-03T11:34:00;99027.84;;;19.30;34.56
21433;BME280;18592;49.708;10.900;2023-03-03T11:36:15;99028.94;;;19.34;34.83
21433;BME280;18592;49.708;10.900;2023-03-03T11:41:00;99031.97;;;19.38;34.64
21433;BME280;18592;49.708;10.900;2023-03-03T11:43:26;99025.28;;;19.39;34.65
21433;BME280;18592;49.708;10.900;2023-03-03T11:45:42;99023.59;;;19.43;34.82
21433;BME280;18592;49.708;10.900;2023-03-03T11:47:57;99019.41;;;19.45;34.54
21433;BME280;18592;49.708;10.900;2023-03-03T11:54:29;99001.34;;;19.53;34.13
21433;BME280;18592;49.708;10.900;2023-03-03T11:56:41;99001.53;;;19.56;34.35
21433;BME280;18592;49.708;10.900;2023-03-03T11:58:46;98988.78;;;19.60;34.86
21433;BME280;18592;49.708;10.900;2023-03-03T12:00:53;99002.00;;;19.63;34.39
21433;BME280;18592;49.708;10.900;2023-03-03T12:03:16;98987.06;;;19.64;34.38
21433;BME280;18592;49.708;10.900;2023-03-03T12:08:07;98991.69;;;19.69;34.38
21433;BME280;18592;49.708;10.900;2023-03-03T12:12:37;98986.38;;;19.73;34.60
21433;BME280;18592;49.708;10.900;2023-03-03T12:19:38;98972.16;;;19.79;34.53
21433;BME280;18592;49.708;10.900;2023-03-03T12:26:36;98964.50;;;19.90;34.32